sensor_id;sensor_type;location;lat;lon;timestamp;temperature;humidity
71801;HTU21D;59647;55.838;37.292;2023-02-18T00:06:48;-6.24;83.39
71801;HTU21D;59647;55.838;37.292;2023-02-18T00:09:32;-6.29;83.30
71801;HTU21D;59647;55.838;37.292;2023-02-18T00:11:57;-6.28;83.20
71801;HTU21D;59647;55.838;37.292;2023-02-18T00:14:23;-6.21;82.69
71801;HTU21D;59647;55.838;37.292;2023-02-18T00:16:49;-6.22;82.81
71801;HTU21D;59647;55.838;37.292;2023-02-18T00:19:17;-6.21;82.30
71801;HTU21D;59647;55.838;37.292;2023-02-18T00:21:43;-6.18;82.25
71801;HTU21D;59647;55.838;37.292;2023-02-18T00:24:12;-6.18;82.02
71801;HTU21D;59647;55.838;37.292;2023-02-18T00:26:40;-6.16;81.89
71801;HTU21D;59647;55.838;37.292;2023-02-18T00:29:25;-6.13;81.60
71801;HTU21D;59647;55.838;37.292;2023-02-18T00:34:35;-6.07;81.52
71801;HTU21D;59647;55.838;37.292;2023-02-18T00:39:47;-6.12;81.08
71801;HTU21D;59647;55.838;37.292;2023-02-18T00:42:29;-6.14;81.10
71801;HTU21D;59647;55.838;37.292;2023-02-18T00:44:55;-6.16;81.30
71801;HTU21D;59647;55.838;37.292;2023-02-18T00:47:20;-6.20;81.84
71801;HTU21D;59647;55.838;37.292;2023-02-18T00:49:46;-6.18;81.53
71801;HTU21D;59647;55.838;37.292;2023-02-18T00:52:12;-6.21;81.42
71801;HTU21D;59647;55.838;37.292;2023-02-18T00:54:39;-6.28;81.87
71801;HTU21D;59647;55.838;37.292;2023-02-18T00:57:05;-6.29;82.17
71801;HTU21D;59647;55.838;37.292;2023-02-18T00:59:31;-6.27;81.65
71801;HTU21D;59647;55.838;37.292;2023-02-18T01:01:59;-6.31;82.33
71801;HTU21D;59647;55.838;37.292;2023-02-18T01:07:29;-6.31;81.65
71801;HTU21D;59647;55.838;37.292;2023-02-18T01:09:55;-6.34;81.44
71801;HTU21D;59647;55.838;37.292;2023-02-18T01:12:39;-6.34;81.65
71801;HTU21D;59647;55.838;37.292;2023-02-18T01:15:05;-6.36;81.45
71801;HTU21D;59647;55.838;37.292;2023-02-18T01:17:31;-6.37;81.49
71801;HTU21D;59647;55.838;37.292;2023-02-18T01:20:18;-6.38;81.53
71801;HTU21D;59647;55.838;37.292;2023-02-18T01:22:44;-6.39;81.62
71801;HTU21D;59647;55.838;37.292;2023-02-18T01:25:10;-6.44;81.73
71801;HTU21D;59647;55.838;37.292;2023-02-18T01:27:36;-6.44;81.81
71801;HTU21D;59647;55.838;37.292;2023-02-18T01:30:04;-6.41;82.11
71801;HTU21D;59647;55.838;37.292;2023-02-18T01:32:30;-6.41;81.86
71801;HTU21D;59647;55.838;37.292;2023-02-18T01:34:56;-6.39;81.51
71801;HTU21D;59647;55.838;37.292;2023-02-18T01:37:21;-6.42;82.06
71801;HTU21D;59647;55.838;37.292;2023-02-18T01:42:34;-6.49;81.67
71801;HTU21D;59647;55.838;37.292;2023-02-18T01:45:49;-6.50;81.88
71801;HTU21D;59647;55.838;37.292;2023-02-18T01:48:24;-6.50;81.98
71801;HTU21D;59647;55.838;37.292;2023-02-18T01:51:13;-6.51;81.74
71801;HTU21D;59647;55.838;37.292;2023-02-18T01:56:37;-6.61;82.17
71801;HTU21D;59647;55.838;37.292;2023-02-18T01:59:08;-6.59;82.15
71801;HTU21D;59647;55.838;37.292;2023-02-18T02:01:35;-6.61;82.81
71801;HTU21D;59647;55.838;37.292;2023-02-18T02:04:01;-6.63;83.13
71801;HTU21D;59647;55.838;37.292;2023-02-18T02:06:27;-6.61;83.00
71801;HTU21D;59647;55.838;37.292;2023-02-18T02:08:56;-6.56;82.94
71801;HTU21D;59647;55.838;37.292;2023-02-18T02:16:56;-6.32;82.81
71801;HTU21D;59647;55.838;37.292;2023-02-18T02:25:21;-6.16;83.01
71801;HTU21D;59647;55.838;37.292;2023-02-18T02:31:02;-6.08;82.76
71801;HTU21D;59647;55.838;37.292;2023-02-18T02:36:18;-6.11;83.65
71801;HTU21D;59647;55.838;37.292;2023-02-18T02:41:26;-6.08;83.20
71801;HTU21D;59647;55.838;37.292;2023-02-18T02:44:10;-6.01;83.21
71801;HTU21D;59647;55.838;37.292;2023-02-18T02:50:03;-6.15;84.38
71801;HTU21D;59647;55.838;37.292;2023-02-18T02:52:33;-6.27;85.29
71801;HTU21D;59647;55.838;37.292;2023-02-18T02:55:21;-6.30;85.27
71801;HTU21D;59647;55.838;37.292;2023-02-18T03:01:26;-6.26;84.23
71801;HTU21D;59647;55.838;37.292;2023-02-18T03:04:35;-6.28;84.58
71801;HTU21D;59647;55.838;37.292;2023-02-18T03:12:48;-6.20;84.71
71801;HTU21D;59647;55.838;37.292;2023-02-18T03:15:23;-6.15;85.74
71801;HTU21D;59647;55.838;37.292;2023-02-18T03:18:39;-6.09;85.19
71801;HTU21D;59647;55.838;37.292;2023-02-18T03:26:39;-5.96;84.75
71801;HTU21D;59647;55.838;37.292;2023-02-18T03:29:26;-5.92;84.89
71801;HTU21D;59647;55.838;37.292;2023-02-18T03:31:59;-5.96;85.53
71801;HTU21D;59647;55.838;37.292;2023-02-18T03:34:30;-5.93;85.90
71801;HTU21D;59647;55.838;37.292;2023-02-18T03:36:59;-6.00;85.48
71801;HTU21D;59647;55.838;37.292;2023-02-18T03:39:27;-6.04;86.30
71801;HTU21D;59647;55.838;37.292;2023-02-18T03:41:53;-6.08;86.83
71801;HTU21D;59647;55.838;37.292;2023-02-18T03:44:19;-6.11;86.78
71801;HTU21D;59647;55.838;37.292;2023-02-18T03:46:45;-6.14;87.61
71801;HTU21D;59647;55.838;37.292;2023-02-18T03:49:30;-6.15;87.71
71801;HTU21D;59647;55.838;37.292;2023-02-18T03:51:59;-6.15;87.52
71801;HTU21D;59647;55.838;37.292;2023-02-18T03:57:09;-6.24;87.94
71801;HTU21D;59647;55.838;37.292;2023-02-18T03:59:35;-6.27;87.52
71801;HTU21D;59647;55.838;37.292;2023-02-18T04:02:01;-6.20;86.95
71801;HTU21D;59647;55.838;37.292;2023-02-18T04:04:27;-6.12;86.58
71801;HTU21D;59647;55.838;37.292;2023-02-18T04:06:53;-6.11;86.22
71801;HTU21D;59647;55.838;37.292;2023-02-18T04:09:19;-6.09;85.61
71801;HTU21D;59647;55.838;37.292;2023-02-18T04:11:44;-6.14;85.84
71801;HTU21D;59647;55.838;37.292;2023-02-18T04:14:12;-6.11;86.00
71801;HTU21D;59647;55.838;37.292;2023-02-18T04:16:39;-6.07;85.40
71801;HTU21D;59647;55.838;37.292;2023-02-18T04:19:05;-6.06;85.48
71801;HTU21D;59647;55.838;37.292;2023-02-18T04:21:31;-6.05;85.16
71801;HTU21D;59647;55.838;37.292;2023-02-18T04:23:57;-6.07;85.45
71801;HTU21D;59647;55.838;37.292;2023-02-18T04:29:07;-6.04;84.73
71801;HTU21D;59647;55.838;37.292;2023-02-18T04:31:33;-5.98;84.74
71801;HTU21D;59647;55.838;37.292;2023-02-18T04:33:59;-5.96;84.44
71801;HTU21D;59647;55.838;37.292;2023-02-18T04:36:25;-5.90;84.39
71801;HTU21D;59647;55.838;37.292;2023-02-18T04:38:50;-5.90;83.77
71801;HTU21D;59647;55.838;37.292;2023-02-18T04:41:16;-5.93;83.92
71801;HTU21D;59647;55.838;37.292;2023-02-18T04:43:42;-5.91;83.76
71801;HTU21D;59647;55.838;37.292;2023-02-18T04:46:26;-5.87;83.79
71801;HTU21D;59647;55.838;37.292;2023-02-18T04:49:11;-5.89;83.58
71801;HTU21D;59647;55.838;37.292;2023-02-18T04:54:40;-5.89;83.54
71801;HTU21D;59647;55.838;37.292;2023-02-18T05:00:13;-5.93;83.22
71801;HTU21D;59647;55.838;37.292;2023-02-18T05:02:45;-5.97;83.68
71801;HTU21D;59647;55.838;37.292;2023-02-18T05:05:14;-5.96;83.90
71801;HTU21D;59647;55.838;37.292;2023-02-18T05:07:41;-5.92;83.46
71801;HTU21D;59647;55.838;37.292;2023-02-18T05:10:09;-5.96;83.36
71801;HTU21D;59647;55.838;37.292;2023-02-18T05:12:35;-5.99;83.26
71801;HTU21D;59647;55.838;37.292;2023-02-18T05:17:46;-5.97;82.99
71801;HTU21D;59647;55.838;37.292;2023-02-18T05:20:12;-5.93;82.75
71801;HTU21D;59647;55.838;37.292;2023-02-18T05:22:38;-5.93;82.68
71801;HTU21D;59647;55.838;37.292;2023-02-18T05:25:22;-6.01;83.30
71801;HTU21D;59647;55.838;37.292;2023-02-18T05:28:07;-6.04;83.60
71801;HTU21D;59647;55.838;37.292;2023-02-18T05:30:51;-6.11;83.73
71801;HTU21D;59647;55.838;37.292;2023-02-18T05:33:17;-6.11;83.60
71801;HTU21D;59647;55.838;37.292;2023-02-18T05:35:42;-6.15;83.55
71801;HTU21D;59647;55.838;37.292;2023-02-18T05:38:08;-6.24;84.72
71801;HTU21D;59647;55.838;37.292;2023-02-18T05:40:34;-6.30;86.12
71801;HTU21D;59647;55.838;37.292;2023-02-18T05:43:00;-6.35;86.12
71801;HTU21D;59647;55.838;37.292;2023-02-18T05:45:26;-6.30;86.24
71801;HTU21D;59647;55.838;37.292;2023-02-18T05:53:40;-6.22;86.28
71801;HTU21D;59647;55.838;37.292;2023-02-18T05:56:06;-6.19;86.10
71801;HTU21D;59647;55.838;37.292;2023-02-18T06:01:54;-6.09;85.26
71801;HTU21D;59647;55.838;37.292;2023-02-18T06:04:20;-6.09;84.84
71801;HTU21D;59647;55.838;37.292;2023-02-18T06:06:46;-6.14;86.22
71801;HTU21D;59647;55.838;37.292;2023-02-18T06:09:12;-6.07;84.88
71801;HTU21D;59647;55.838;37.292;2023-02-18T06:11:38;-6.01;84.66
71801;HTU21D;59647;55.838;37.292;2023-02-18T06:14:04;-6.04;84.23
71801;HTU21D;59647;55.838;37.292;2023-02-18T06:16:31;-6.00;84.41
71801;HTU21D;59647;55.838;37.292;2023-02-18T06:18:57;-5.94;84.29
71801;HTU21D;59647;55.838;37.292;2023-02-18T06:21:23;-5.83;84.10
71801;HTU21D;59647;55.838;37.292;2023-02-18T06:23:49;-5.77;83.16
71801;HTU21D;59647;55.838;37.292;2023-02-18T06:32:21;-5.74;81.34
71801;HTU21D;59647;55.838;37.292;2023-02-18T06:34:47;-5.60;81.48
71801;HTU21D;59647;55.838;37.292;2023-02-18T06:37:13;-5.60;80.18
71801;HTU21D;59647;55.838;37.292;2023-02-18T06:39:39;-5.59;80.47
71801;HTU21D;59647;55.838;37.292;2023-02-18T06:42:04;-5.57;79.67
71801;HTU21D;59647;55.838;37.292;2023-02-18T06:44:30;-5.47;79.58
71801;HTU21D;59647;55.838;37.292;2023-02-18T06:50:01;-5.29;78.17
71801;HTU21D;59647;55.838;37.292;2023-02-18T06:58:33;-5.17;78.56
71801;HTU21D;59647;55.838;37.292;2023-02-18T07:01:37;-5.03;78.79
71801;HTU21D;59647;55.838;37.292;2023-02-18T07:04:02;-4.91;77.96
71801;HTU21D;59647;55.838;37.292;2023-02-18T07:06:28;-4.83;77.67
71801;HTU21D;59647;55.838;37.292;2023-02-18T07:08:54;-4.76;76.53
71801;HTU21D;59647;55.838;37.292;2023-02-18T07:11:20;-4.78;76.63
71801;HTU21D;59647;55.838;37.292;2023-02-18T07:13:46;-4.75;76.68
71801;HTU21D;59647;55.838;37.292;2023-02-18T07:16:30;-4.58;76.24
71801;HTU21D;59647;55.838;37.292;2023-02-18T07:21:42;-4.46;77.19
71801;HTU21D;59647;55.838;37.292;2023-02-18T07:24:08;-4.35;75.92
71801;HTU21D;59647;55.838;37.292;2023-02-18T07:26:35;-4.30;75.07
71801;HTU21D;59647;55.838;37.292;2023-02-18T07:29:19;-4.22;75.17
71801;HTU21D;59647;55.838;37.292;2023-02-18T07:32:04;-4.17;74.33
71801;HTU21D;59647;55.838;37.292;2023-02-18T07:34:30;-4.20;75.43
71801;HTU21D;59647;55.838;37.292;2023-02-18T07:36:56;-4.15;75.58
71801;HTU21D;59647;55.838;37.292;2023-02-18T07:39:21;-4.13;76.15
71801;HTU21D;59647;55.838;37.292;2023-02-18T07:41:47;-4.21;73.25
71801;HTU21D;59647;55.838;37.292;2023-02-18T07:44:14;-4.17;73.67
71801;HTU21D;59647;55.838;37.292;2023-02-18T07:46:41;-4.02;73.53
71801;HTU21D;59647;55.838;37.292;2023-02-18T07:49:07;-3.83;72.67
71801;HTU21D;59647;55.838;37.292;2023-02-18T07:51:52;-3.82;72.14
71801;HTU21D;59647;55.838;37.292;2023-02-18T07:54:18;-3.82;70.44
71801;HTU21D;59647;55.838;37.292;2023-02-18T07:57:09;-3.82;70.21
71801;HTU21D;59647;55.838;37.292;2023-02-18T07:59:53;-3.78;72.13
71801;HTU21D;59647;55.838;37.292;2023-02-18T08:02:22;-3.67;71.46
71801;HTU21D;59647;55.838;37.292;2023-02-18T08:04:48;-3.66;68.90
71801;HTU21D;59647;55.838;37.292;2023-02-18T08:07:15;-3.63;70.84
71801;HTU21D;59647;55.838;37.292;2023-02-18T08:09:41;-3.53;70.72
71801;HTU21D;59647;55.838;37.292;2023-02-18T08:12:08;-3.45;70.29
71801;HTU21D;59647;55.838;37.292;2023-02-18T08:14:33;-3.49;69.16
71801;HTU21D;59647;55.838;37.292;2023-02-18T08:16:59;-3.38;69.89
71801;HTU21D;59647;55.838;37.292;2023-02-18T08:19:25;-3.46;69.50
71801;HTU21D;59647;55.838;37.292;2023-02-18T08:21:51;-3.53;68.56
71801;HTU21D;59647;55.838;37.292;2023-02-18T08:24:17;-3.54;68.00
71801;HTU21D;59647;55.838;37.292;2023-02-18T08:29:28;-3.62;68.76
71801;HTU21D;59647;55.838;37.292;2023-02-18T08:31:54;-3.58;69.64
71801;HTU21D;59647;55.838;37.292;2023-02-18T08:34:21;-3.56;70.30
71801;HTU21D;59647;55.838;37.292;2023-02-18T08:36:47;-3.54;69.42
71801;HTU21D;59647;55.838;37.292;2023-02-18T08:39:13;-3.46;69.98
71801;HTU21D;59647;55.838;37.292;2023-02-18T08:41:39;-3.25;70.16
71801;HTU21D;59647;55.838;37.292;2023-02-18T08:44:05;-3.30;68.88
71801;HTU21D;59647;55.838;37.292;2023-02-18T08:46:31;-3.28;69.25
71801;HTU21D;59647;55.838;37.292;2023-02-18T08:49:15;-3.15;70.85
71801;HTU21D;59647;55.838;37.292;2023-02-18T08:51:42;-3.15;69.40
71801;HTU21D;59647;55.838;37.292;2023-02-18T08:54:30;-3.17;68.73
71801;HTU21D;59647;55.838;37.292;2023-02-18T08:56:58;-3.15;70.45
71801;HTU21D;59647;55.838;37.292;2023-02-18T08:59:42;-3.26;70.05
71801;HTU21D;59647;55.838;37.292;2023-02-18T09:02:12;-3.22;70.52
71801;HTU21D;59647;55.838;37.292;2023-02-18T09:04:38;-3.12;71.93
71801;HTU21D;59647;55.838;37.292;2023-02-18T09:07:06;-3.04;70.02
71801;HTU21D;59647;55.838;37.292;2023-02-18T09:09:32;-2.88;71.87
71801;HTU21D;59647;55.838;37.292;2023-02-18T09:12:01;-2.80;72.03
71801;HTU21D;59647;55.838;37.292;2023-02-18T09:14:27;-2.87;69.56
71801;HTU21D;59647;55.838;37.292;2023-02-18T09:16:56;-2.74;70.77
71801;HTU21D;59647;55.838;37.292;2023-02-18T09:19:44;-2.69;69.45
71801;HTU21D;59647;55.838;37.292;2023-02-18T09:25:11;-2.67;70.23
71801;HTU21D;59647;55.838;37.292;2023-02-18T09:27:38;-2.69;70.90
71801;HTU21D;59647;55.838;37.292;2023-02-18T09:30:05;-2.66;71.12
71801;HTU21D;59647;55.838;37.292;2023-02-18T09:32:31;-2.54;70.52
71801;HTU21D;59647;55.838;37.292;2023-02-18T09:34:56;-2.45;69.49
71801;HTU21D;59647;55.838;37.292;2023-02-18T09:37:22;-2.34;69.87
71801;HTU21D;59647;55.838;37.292;2023-02-18T09:39:48;-2.15;70.41
71801;HTU21D;59647;55.838;37.292;2023-02-18T09:42:17;-1.80;69.99
71801;HTU21D;59647;55.838;37.292;2023-02-18T09:44:51;-1.57;68.19
71801;HTU21D;59647;55.838;37.292;2023-02-18T09:47:38;-1.39;65.58
71801;HTU21D;59647;55.838;37.292;2023-02-18T09:50:25;-1.47;66.72
71801;HTU21D;59647;55.838;37.292;2023-02-18T09:52:52;-1.55;66.72
71801;HTU21D;59647;55.838;37.292;2023-02-18T10:01:26;-1.72;66.70
71801;HTU21D;59647;55.838;37.292;2023-02-18T10:03:57;-1.73;68.34
71801;HTU21D;59647;55.838;37.292;2023-02-18T10:06:28;-1.73;67.61
71801;HTU21D;59647;55.838;37.292;2023-02-18T10:08:56;-1.90;67.62
71801;HTU21D;59647;55.838;37.292;2023-02-18T10:11:42;-1.88;68.78
71801;HTU21D;59647;55.838;37.292;2023-02-18T10:14:13;-2.01;68.06
71801;HTU21D;59647;55.838;37.292;2023-02-18T10:16:40;-1.92;70.55
71801;HTU21D;59647;55.838;37.292;2023-02-18T10:19:32;-1.94;69.71
71801;HTU21D;59647;55.838;37.292;2023-02-18T10:22:17;-1.94;68.18
71801;HTU21D;59647;55.838;37.292;2023-02-18T10:24:51;-1.92;68.30
71801;HTU21D;59647;55.838;37.292;2023-02-18T10:27:37;-1.91;68.30
71801;HTU21D;59647;55.838;37.292;2023-02-18T10:30:30;-1.67;68.50
71801;HTU21D;59647;55.838;37.292;2023-02-18T10:35:44;-1.53;66.98
71801;HTU21D;59647;55.838;37.292;2023-02-18T10:38:31;-1.47;67.60
71801;HTU21D;59647;55.838;37.292;2023-02-18T10:50:23;-1.26;65.26
71801;HTU21D;59647;55.838;37.292;2023-02-18T10:52:50;-1.16;65.50
71801;HTU21D;59647;55.838;37.292;2023-02-18T10:55:17;-1.15;67.47
71801;HTU21D;59647;55.838;37.292;2023-02-18T10:57:51;-1.35;65.30
71801;HTU21D;59647;55.838;37.292;2023-02-18T11:00:21;-1.38;66.12
71801;HTU21D;59647;55.838;37.292;2023-02-18T11:03:18;-1.24;68.01
71801;HTU21D;59647;55.838;37.292;2023-02-18T11:05:47;-1.33;66.17
71801;HTU21D;59647;55.838;37.292;2023-02-18T11:08:18;-1.40;66.81
71801;HTU21D;59647;55.838;37.292;2023-02-18T11:10:47;-1.33;66.47
71801;HTU21D;59647;55.838;37.292;2023-02-18T11:13:16;-1.38;67.11
71801;HTU21D;59647;55.838;37.292;2023-02-18T11:18:43;-1.18;65.14
71801;HTU21D;59647;55.838;37.292;2023-02-18T11:21:51;-1.30;64.63
71801;HTU21D;59647;55.838;37.292;2023-02-18T11:24:19;-1.29;64.76
71801;HTU21D;59647;55.838;37.292;2023-02-18T11:26:45;-1.35;63.79
71801;HTU21D;59647;55.838;37.292;2023-02-18T11:29:23;-1.50;67.26
71801;HTU21D;59647;55.838;37.292;2023-02-18T11:32:16;-1.76;67.70
71801;HTU21D;59647;55.838;37.292;2023-02-18T11:35:01;-1.86;66.92
71801;HTU21D;59647;55.838;37.292;2023-02-18T11:37:40;-1.86;66.85
71801;HTU21D;59647;55.838;37.292;2023-02-18T11:40:20;-1.79;66.78
71801;HTU21D;59647;55.838;37.292;2023-02-18T11:42:47;-1.68;67.14
71801;HTU21D;59647;55.838;37.292;2023-02-18T11:45:29;-1.67;67.00
71801;HTU21D;59647;55.838;37.292;2023-02-18T11:48:00;-1.60;66.63
71801;HTU21D;59647;55.838;37.292;2023-02-18T11:50:30;-1.48;66.58
71801;HTU21D;59647;55.838;37.292;2023-02-18T11:52:57;-1.59;66.16
71801;HTU21D;59647;55.838;37.292;2023-02-18T11:55:28;-1.69;66.70
71801;HTU21D;59647;55.838;37.292;2023-02-18T11:57:59;-1.63;68.25
71801;HTU21D;59647;55.838;37.292;2023-02-18T12:00:41;-1.73;67.60
71801;HTU21D;59647;55.838;37.292;2023-02-18T12:05:51;-1.69;65.94
71801;HTU21D;59647;55.838;37.292;2023-02-18T12:08:29;-1.69;67.94
71801;HTU21D;59647;55.838;37.292;2023-02-18T12:11:01;-1.76;67.62
71801;HTU21D;59647;55.838;37.292;2023-02-18T12:13:53;-1.84;65.82
71801;HTU21D;59647;55.838;37.292;2023-02-18T12:22:15;-1.62;68.13
71801;HTU21D;59647;55.838;37.292;2023-02-18T12:28:01;-1.78;66.82
71801;HTU21D;59647;55.838;37.292;2023-02-18T12:30:49;-2.07;67.59
71801;HTU21D;59647;55.838;37.292;2023-02-18T12:42:08;-2.32;69.57
71801;HTU21D;59647;55.838;37.292;2023-02-18T13:14:59;-2.74;73.38
71801;HTU21D;59647;55.838;37.292;2023-02-18T13:17:28;-2.77;72.50
71801;HTU21D;59647;55.838;37.292;2023-02-18T13:20:18;-2.81;72.23
71801;HTU21D;59647;55.838;37.292;2023-02-18T13:22:46;-2.94;72.33
71801;HTU21D;59647;55.838;37.292;2023-02-18T13:25:15;-2.88;72.36
71801;HTU21D;59647;55.838;37.292;2023-02-18T13:30:47;-3.04;73.23
71801;HTU21D;59647;55.838;37.292;2023-02-18T13:41:21;-3.04;73.22
71801;HTU21D;59647;55.838;37.292;2023-02-18T13:43:48;-3.06;73.64
71801;HTU21D;59647;55.838;37.292;2023-02-18T13:46:21;-3.15;73.98
71801;HTU21D;59647;55.838;37.292;2023-02-18T13:49:05;-3.15;73.89
71801;HTU21D;59647;55.838;37.292;2023-02-18T13:56:41;-3.36;74.92
71801;HTU21D;59647;55.838;37.292;2023-02-18T14:01:46;-3.36;74.97
71801;HTU21D;59647;55.838;37.292;2023-02-18T14:07:31;-3.31;75.03
71801;HTU21D;59647;55.838;37.292;2023-02-18T14:20:28;-3.33;75.54
71801;HTU21D;59647;55.838;37.292;2023-02-18T14:22:55;-3.40;76.22
71801;HTU21D;59647;55.838;37.292;2023-02-18T14:25:33;-3.30;75.43
71801;HTU21D;59647;55.838;37.292;2023-02-18T14:28:03;-3.40;76.64
71801;HTU21D;59647;55.838;37.292;2023-02-18T14:30:48;-3.40;76.91
71801;HTU21D;59647;55.838;37.292;2023-02-18T14:33:15;-3.40;76.97
71801;HTU21D;59647;55.838;37.292;2023-02-18T14:47:16;-3.30;77.24
71801;HTU21D;59647;55.838;37.292;2023-02-18T14:49:47;-3.24;77.39
71801;HTU21D;59647;55.838;37.292;2023-02-18T14:54:47;-3.19;77.48
71801;HTU21D;59647;55.838;37.292;2023-02-18T14:57:16;-3.19;77.59
71801;HTU21D;59647;55.838;37.292;2023-02-18T14:59:45;-3.18;77.78
71801;HTU21D;59647;55.838;37.292;2023-02-18T15:02:20;-3.17;77.92
71801;HTU21D;59647;55.838;37.292;2023-02-18T15:04:46;-3.24;77.50
71801;HTU21D;59647;55.838;37.292;2023-02-18T15:07:12;-3.31;77.09
71801;HTU21D;59647;55.838;37.292;2023-02-18T15:09:54;-3.27;77.18
71801;HTU21D;59647;55.838;37.292;2023-02-18T15:12:22;-3.26;77.53
71801;HTU21D;59647;55.838;37.292;2023-02-18T15:14:51;-3.23;77.85
71801;HTU21D;59647;55.838;37.292;2023-02-18T15:17:23;-3.26;77.83
71801;HTU21D;59647;55.838;37.292;2023-02-18T15:19:56;-3.22;78.05
71801;HTU21D;59647;55.838;37.292;2023-02-18T15:22:25;-3.19;78.09
71801;HTU21D;59647;55.838;37.292;2023-02-18T15:24:53;-3.21;77.99
71801;HTU21D;59647;55.838;37.292;2023-02-18T15:27:22;-3.23;77.62
71801;HTU21D;59647;55.838;37.292;2023-02-18T15:29:52;-3.32;77.40
71801;HTU21D;59647;55.838;37.292;2023-02-18T15:32:24;-3.37;77.14
71801;HTU21D;59647;55.838;37.292;2023-02-18T15:35:00;-3.45;77.27
71801;HTU21D;59647;55.838;37.292;2023-02-18T15:37:27;-3.48;77.62
71801;HTU21D;59647;55.838;37.292;2023-02-18T15:39:53;-3.45;77.06
71801;HTU21D;59647;55.838;37.292;2023-02-18T15:42:33;-3.53;78.14
71801;HTU21D;59647;55.838;37.292;2023-02-18T15:45:19;-3.64;78.93
71801;HTU21D;59647;55.838;37.292;2023-02-18T15:47:54;-3.69;79.23
71801;HTU21D;59647;55.838;37.292;2023-02-18T15:52:46;-3.56;79.18
71801;HTU21D;59647;55.838;37.292;2023-02-18T15:55:32;-3.48;78.54
71801;HTU21D;59647;55.838;37.292;2023-02-18T15:58:04;-3.54;79.71
71801;HTU21D;59647;55.838;37.292;2023-02-18T16:00:39;-3.48;79.14
71801;HTU21D;59647;55.838;37.292;2023-02-18T16:05:39;-3.52;79.74
71801;HTU21D;59647;55.838;37.292;2023-02-18T16:08:24;-3.46;80.08
71801;HTU21D;59647;55.838;37.292;2023-02-18T16:11:01;-3.41;79.87
71801;HTU21D;59647;55.838;37.292;2023-02-18T16:13:27;-3.36;79.42
71801;HTU21D;59647;55.838;37.292;2023-02-18T16:15:56;-3.38;79.67
71801;HTU21D;59647;55.838;37.292;2023-02-18T16:18:30;-3.40;79.56
71801;HTU21D;59647;55.838;37.292;2023-02-18T16:23:35;-3.31;79.04
71801;HTU21D;59647;55.838;37.292;2023-02-18T16:28:54;-3.38;78.83
71801;HTU21D;59647;55.838;37.292;2023-02-18T16:31:24;-3.39;77.91
71801;HTU21D;59647;55.838;37.292;2023-02-18T16:33:51;-3.40;78.80
71801;HTU21D;59647;55.838;37.292;2023-02-18T16:36:17;-3.51;79.49
71801;HTU21D;59647;55.838;37.292;2023-02-18T16:38:44;-3.46;79.11
71801;HTU21D;59647;55.838;37.292;2023-02-18T16:41:11;-3.53;79.23
71801;HTU21D;59647;55.838;37.292;2023-02-18T16:43:37;-3.50;79.53
71801;HTU21D;59647;55.838;37.292;2023-02-18T16:46:23;-3.40;78.98
71801;HTU21D;59647;55.838;37.292;2023-02-18T16:48:50;-3.48;79.03
71801;HTU21D;59647;55.838;37.292;2023-02-18T16:51:32;-3.42;79.84
71801;HTU21D;59647;55.838;37.292;2023-02-18T16:54:00;-3.35;78.93
71801;HTU21D;59647;55.838;37.292;2023-02-18T16:56:29;-3.30;78.54
71801;HTU21D;59647;55.838;37.292;2023-02-18T16:58:56;-3.32;78.85
71801;HTU21D;59647;55.838;37.292;2023-02-18T17:01:26;-3.40;79.27
71801;HTU21D;59647;55.838;37.292;2023-02-18T17:03:52;-3.40;79.30
71801;HTU21D;59647;55.838;37.292;2023-02-18T17:06:19;-3.35;79.43
71801;HTU21D;59647;55.838;37.292;2023-02-18T17:08:47;-3.38;79.91
71801;HTU21D;59647;55.838;37.292;2023-02-18T17:11:22;-3.41;80.08
71801;HTU21D;59647;55.838;37.292;2023-02-18T17:13:51;-3.36;80.40
71801;HTU21D;59647;55.838;37.292;2023-02-18T17:16:18;-3.31;79.72
71801;HTU21D;59647;55.838;37.292;2023-02-18T17:18:45;-3.25;79.33
71801;HTU21D;59647;55.838;37.292;2023-02-18T17:21:13;-3.27;79.49
71801;HTU21D;59647;55.838;37.292;2023-02-18T17:23:40;-3.25;79.68
71801;HTU21D;59647;55.838;37.292;2023-02-18T17:26:24;-3.21;79.55
71801;HTU21D;59647;55.838;37.292;2023-02-18T17:28:51;-3.27;79.84
71801;HTU21D;59647;55.838;37.292;2023-02-18T17:31:26;-3.28;79.83
71801;HTU21D;59647;55.838;37.292;2023-02-18T17:33:54;-3.30;80.26
71801;HTU21D;59647;55.838;37.292;2023-02-18T17:36:21;-3.26;79.21
71801;HTU21D;59647;55.838;37.292;2023-02-18T17:38:47;-3.27;79.76
71801;HTU21D;59647;55.838;37.292;2023-02-18T17:41:14;-3.33;80.52
71801;HTU21D;59647;55.838;37.292;2023-02-18T17:43:40;-3.28;79.89
71801;HTU21D;59647;55.838;37.292;2023-02-18T17:46:11;-3.25;80.25
71801;HTU21D;59647;55.838;37.292;2023-02-18T17:48:38;-3.34;80.42
71801;HTU21D;59647;55.838;37.292;2023-02-18T17:51:05;-3.30;80.52
71801;HTU21D;59647;55.838;37.292;2023-02-18T17:53:35;-3.35;80.52
71801;HTU21D;59647;55.838;37.292;2023-02-18T17:56:03;-3.25;80.29
71801;HTU21D;59647;55.838;37.292;2023-02-18T17:58:29;-3.25;80.29
71801;HTU21D;59647;55.838;37.292;2023-02-18T18:00:56;-3.28;80.54
71801;HTU21D;59647;55.838;37.292;2023-02-18T18:03:22;-3.21;80.26
71801;HTU21D;59647;55.838;37.292;2023-02-18T18:05:49;-3.18;79.90
71801;HTU21D;59647;55.838;37.292;2023-02-18T18:08:19;-3.16;79.93
71801;HTU21D;59647;55.838;37.292;2023-02-18T18:10:52;-3.11;79.92
71801;HTU21D;59647;55.838;37.292;2023-02-18T18:13:24;-3.09;79.72
71801;HTU21D;59647;55.838;37.292;2023-02-18T18:15:51;-3.09;79.54
71801;HTU21D;59647;55.838;37.292;2023-02-18T18:18:17;-3.19;80.87
71801;HTU21D;59647;55.838;37.292;2023-02-18T18:20:46;-3.13;79.37
71801;HTU21D;59647;55.838;37.292;2023-02-18T18:23:14;-3.17;80.16
71801;HTU21D;59647;55.838;37.292;2023-02-18T18:25:43;-3.20;81.31
71801;HTU21D;59647;55.838;37.292;2023-02-18T18:28:09;-3.18;81.39
71801;HTU21D;59647;55.838;37.292;2023-02-18T18:30:40;-3.37;83.29
71801;HTU21D;59647;55.838;37.292;2023-02-18T18:33:19;-3.30;81.33
71801;HTU21D;59647;55.838;37.292;2023-02-18T18:35:46;-3.20;81.27
71801;HTU21D;59647;55.838;37.292;2023-02-18T18:38:15;-3.16;80.97
71801;HTU21D;59647;55.838;37.292;2023-02-18T18:40:42;-3.21;80.66
71801;HTU21D;59647;55.838;37.292;2023-02-18T18:43:19;-3.12;80.46
71801;HTU21D;59647;55.838;37.292;2023-02-18T18:45:46;-3.15;80.43
71801;HTU21D;59647;55.838;37.292;2023-02-18T18:48:12;-3.09;80.04
71801;HTU21D;59647;55.838;37.292;2023-02-18T18:50:37;-3.05;80.41
71801;HTU21D;59647;55.838;37.292;2023-02-18T18:53:05;-3.05;80.68
71801;HTU21D;59647;55.838;37.292;2023-02-18T18:55:33;-3.07;80.62
71801;HTU21D;59647;55.838;37.292;2023-02-18T18:58:00;-3.08;81.10
71801;HTU21D;59647;55.838;37.292;2023-02-18T19:00:27;-3.05;81.11
71801;HTU21D;59647;55.838;37.292;2023-02-18T19:02:53;-3.11;81.53
71801;HTU21D;59647;55.838;37.292;2023-02-18T19:05:44;-3.12;82.02
71801;HTU21D;59647;55.838;37.292;2023-02-18T19:08:13;-3.17;82.62
71801;HTU21D;59647;55.838;37.292;2023-02-18T19:10:44;-3.15;82.17
71801;HTU21D;59647;55.838;37.292;2023-02-18T19:13:30;-3.07;81.69
71801;HTU21D;59647;55.838;37.292;2023-02-18T19:21:16;-3.09;81.64
71801;HTU21D;59647;55.838;37.292;2023-02-18T19:24:01;-3.08;81.66
71801;HTU21D;59647;55.838;37.292;2023-02-18T19:26:27;-3.15;82.44